CES5001 ZSPD-ZSOF
Flight info
| Callsign | CES5001 |
|---|---|
| Flight time | 1h 6m |
| Altitude | 15700 |
| Route | PIK81D/17L PIKAS G330 UNTAN G345 OLRIS R343 MADUK MAD01A |
| Aircraft | B77W/H-SDE1E2E3FGHIJ2J3J4J5M1RWXY/LB1D1 |
Departure
| Time | 2026-05-04 22:27 |
|---|---|
| Airport | Shanghai Pudong International Airport (ZSPD) |
Arrival
| Time | 2026-05-04 23:33 |
|---|---|
| Airport | Hefei Xinqiao International Airport (ZSOF) |
| Time | Latitude | Longitude | Altitude | Speed | Heading |
|---|---|---|---|---|---|
| 2026-05-04 21:51 | 31.15482 | 121.79300 | 27 ft | 0 kts | 252° |
| 2026-05-04 22:17 | 31.15486 | 121.79311 | 27 ft | 2 kts | 252° |
| 2026-05-04 22:17 | 31.15490 | 121.79327 | 27 ft | 2 kts | 263° |
| 2026-05-04 22:17 | 31.15490 | 121.79345 | 27 ft | 2 kts | 278° |
| 2026-05-04 22:17 | 31.15487 | 121.79362 | 27 ft | 2 kts | 290° |
| 2026-05-04 22:18 | 31.15480 | 121.79378 | 27 ft | 2 kts | 302° |
| 2026-05-04 22:18 | 31.15471 | 121.79391 | 27 ft | 2 kts | 315° |
| 2026-05-04 22:18 | 31.15460 | 121.79403 | 27 ft | 2 kts | 327° |
| 2026-05-04 22:18 | 31.15447 | 121.79411 | 27 ft | 2 kts | 340° |
| 2026-05-04 22:19 | 31.15432 | 121.79417 | 27 ft | 2 kts | 344° |
| 2026-05-04 22:19 | 31.15418 | 121.79421 | 27 ft | 2 kts | 342° |
| 2026-05-04 22:19 | 31.15406 | 121.79426 | 27 ft | 0 kts | 342° |
| 2026-05-04 22:23 | 31.15419 | 121.79421 | 27 ft | 5 kts | 342° |
| 2026-05-04 22:23 | 31.15479 | 121.79398 | 27 ft | 10 kts | 342° |
| 2026-05-04 22:24 | 31.15554 | 121.79370 | 27 ft | 12 kts | 342° |
| 2026-05-04 22:24 | 31.15644 | 121.79336 | 27 ft | 14 kts | 340° |
| 2026-05-04 22:24 | 31.15679 | 121.79240 | 27 ft | 14 kts | 256° |
| 2026-05-04 22:24 | 31.15650 | 121.79131 | 27 ft | 14 kts | 251° |
| 2026-05-04 22:25 | 31.15621 | 121.79022 | 27 ft | 14 kts | 256° |
| 2026-05-04 22:25 | 31.15611 | 121.78951 | 27 ft | 0 kts | 264° |
| 2026-05-04 22:25 | 31.15611 | 121.78950 | 27 ft | 1 kts | 264° |
| 2026-05-04 22:26 | 31.15607 | 121.78899 | 27 ft | 12 kts | 264° |
| 2026-05-04 22:26 | 31.15545 | 121.78818 | 27 ft | 15 kts | 178° |
| 2026-05-04 22:26 | 31.15416 | 121.78864 | 27 ft | 32 kts | 161° |
| 2026-05-04 22:26 | 31.14838 | 121.79083 | 29 ft | 142 kts | 162° |
| 2026-05-04 22:27 | 31.13686 | 121.79533 | 554 ft | 202 kts | 161° |
| 2026-05-04 22:27 | 31.12296 | 121.80021 | 2052 ft | 214 kts | 166° |
| 2026-05-04 22:27 | 31.10869 | 121.80476 | 3055 ft | 228 kts | 163° |
| 2026-05-04 22:27 | 31.09261 | 121.81044 | 3071 ft | 252 kts | 163° |
| 2026-05-04 22:28 | 31.07554 | 121.81631 | 2999 ft | 254 kts | 164° |
| 2026-05-04 22:28 | 31.05853 | 121.82207 | 3009 ft | 264 kts | 164° |
| 2026-05-04 22:28 | 31.04019 | 121.82825 | 4046 ft | 279 kts | 165° |
| 2026-05-04 22:28 | 31.02183 | 121.83067 | 5632 ft | 269 kts | 185° |
| 2026-05-04 22:29 | 31.00397 | 121.82526 | 6679 ft | 277 kts | 207° |
| 2026-05-04 22:29 | 30.98879 | 121.81132 | 7787 ft | 282 kts | 232° |
| 2026-05-04 22:29 | 30.97984 | 121.79153 | 8919 ft | 284 kts | 253° |
| 2026-05-04 22:29 | 30.97445 | 121.76964 | 10072 ft | 287 kts | 256° |
| 2026-05-04 22:30 | 30.96886 | 121.74708 | 11061 ft | 297 kts | 255° |
| 2026-05-04 22:30 | 30.96500 | 121.72294 | 11926 ft | 311 kts | 267° |
| 2026-05-04 22:30 | 30.96611 | 121.69770 | 12750 ft | 324 kts | 279° |
| 2026-05-04 22:30 | 30.97046 | 121.67123 | 13622 ft | 338 kts | 281° |
| 2026-05-04 22:31 | 30.97531 | 121.64414 | 14511 ft | 351 kts | 281° |
| 2026-05-04 22:31 | 30.98043 | 121.61622 | 15395 ft | 356 kts | 281° |
| 2026-05-04 22:31 | 30.98560 | 121.58817 | 15719 ft | 358 kts | 282° |
| 2026-05-04 22:31 | 30.99079 | 121.56004 | 15745 ft | 355 kts | 281° |
| 2026-05-04 22:32 | 30.99595 | 121.53198 | 15775 ft | 354 kts | 282° |
| 2026-05-04 22:32 | 31.00116 | 121.50363 | 15760 ft | 354 kts | 282° |
| 2026-05-04 22:32 | 31.00623 | 121.47598 | 15763 ft | 353 kts | 282° |
| 2026-05-04 22:32 | 31.01136 | 121.44806 | 15766 ft | 354 kts | 282° |
| 2026-05-04 22:33 | 31.01658 | 121.41975 | 15761 ft | 358 kts | 282° |
| 2026-05-04 22:33 | 31.02206 | 121.38989 | 15770 ft | 391 kts | 282° |
| 2026-05-04 22:33 | 31.02781 | 121.35855 | 15767 ft | 400 kts | 282° |
| 2026-05-04 22:33 | 31.03361 | 121.32694 | 15766 ft | 402 kts | 281° |
| 2026-05-04 22:34 | 31.03950 | 121.29474 | 15768 ft | 402 kts | 281° |
| 2026-05-04 22:34 | 31.04529 | 121.26306 | 15764 ft | 402 kts | 281° |
| 2026-05-04 22:34 | 31.05260 | 121.23152 | 15762 ft | 403 kts | 289° |
| 2026-05-04 22:34 | 31.06465 | 121.20218 | 15756 ft | 405 kts | 300° |
| 2026-05-04 22:35 | 31.08148 | 121.17551 | 15761 ft | 407 kts | 309° |
| 2026-05-04 22:35 | 31.10199 | 121.15305 | 15761 ft | 408 kts | 320° |
| 2026-05-04 22:35 | 31.12592 | 121.13512 | 15758 ft | 412 kts | 330° |
| 2026-05-04 22:35 | 31.15273 | 121.12240 | 15755 ft | 414 kts | 341° |
| 2026-05-04 22:36 | 31.18110 | 121.11571 | 15756 ft | 418 kts | 351° |
| 2026-05-04 22:36 | 31.21037 | 121.11428 | 15758 ft | 420 kts | 356° |
| 2026-05-04 22:36 | 31.23966 | 121.11370 | 15762 ft | 420 kts | 356° |
| 2026-05-04 22:36 | 31.26874 | 121.11286 | 15764 ft | 419 kts | 355° |
| 2026-05-04 22:37 | 31.29791 | 121.11178 | 15765 ft | 419 kts | 355° |
| 2026-05-04 22:37 | 31.32718 | 121.11049 | 15763 ft | 419 kts | 355° |
| 2026-05-04 22:37 | 31.35610 | 121.10983 | 15763 ft | 420 kts | 359° |
| 2026-05-04 22:37 | 31.38540 | 121.11169 | 15764 ft | 421 kts | 1° |
| 2026-05-04 22:38 | 31.41453 | 121.11371 | 15755 ft | 419 kts | 359° |
| 2026-05-04 22:38 | 31.44395 | 121.11166 | 15757 ft | 418 kts | 349° |
| 2026-05-04 22:38 | 31.47182 | 121.10370 | 15756 ft | 415 kts | 339° |
| 2026-05-04 22:38 | 31.49863 | 121.09078 | 15757 ft | 412 kts | 334° |
| 2026-05-04 22:39 | 31.52482 | 121.07690 | 15757 ft | 412 kts | 333° |
| 2026-05-04 22:39 | 31.55080 | 121.06298 | 15758 ft | 412 kts | 333° |
| 2026-05-04 22:39 | 31.57676 | 121.04906 | 15759 ft | 411 kts | 333° |
| 2026-05-04 22:39 | 31.60273 | 121.03512 | 15756 ft | 413 kts | 333° |
| 2026-05-04 22:40 | 31.62898 | 121.02102 | 15755 ft | 411 kts | 333° |
| 2026-05-04 22:40 | 31.65505 | 121.00701 | 15761 ft | 412 kts | 333° |
| 2026-05-04 22:40 | 31.68110 | 120.99300 | 15755 ft | 412 kts | 333° |
| 2026-05-04 22:40 | 31.70719 | 120.97897 | 15755 ft | 412 kts | 333° |
| 2026-05-04 22:41 | 31.73324 | 120.96494 | 15753 ft | 412 kts | 333° |
| 2026-05-04 22:41 | 31.75939 | 120.95090 | 15753 ft | 412 kts | 334° |
| 2026-05-04 22:41 | 31.78559 | 120.93697 | 15755 ft | 412 kts | 334° |
| 2026-05-04 22:41 | 31.81164 | 120.92312 | 15752 ft | 412 kts | 334° |
| 2026-05-04 22:42 | 31.83785 | 120.90916 | 15747 ft | 412 kts | 334° |
| 2026-05-04 22:42 | 31.86406 | 120.89521 | 15751 ft | 412 kts | 334° |
| 2026-05-04 22:42 | 31.89016 | 120.88130 | 15751 ft | 411 kts | 334° |
| 2026-05-04 22:42 | 31.91605 | 120.86749 | 15754 ft | 412 kts | 334° |
| 2026-05-04 22:43 | 31.94213 | 120.85357 | 15753 ft | 411 kts | 334° |
| 2026-05-04 22:43 | 31.96845 | 120.83951 | 15748 ft | 411 kts | 334° |
| 2026-05-04 22:43 | 31.99422 | 120.82573 | 15745 ft | 412 kts | 334° |
| 2026-05-04 22:43 | 32.02032 | 120.81177 | 15744 ft | 411 kts | 334° |
| 2026-05-04 22:44 | 32.04639 | 120.79782 | 15750 ft | 412 kts | 334° |
| 2026-05-04 22:44 | 32.07268 | 120.78374 | 15745 ft | 411 kts | 334° |
| 2026-05-04 22:44 | 32.09830 | 120.76909 | 15743 ft | 411 kts | 328° |
| 2026-05-04 22:44 | 32.12152 | 120.74981 | 15739 ft | 408 kts | 318° |
| 2026-05-04 22:45 | 32.14137 | 120.72579 | 15744 ft | 409 kts | 308° |
| 2026-05-04 22:45 | 32.16818 | 120.66747 | 15741 ft | 406 kts | 288° |
| 2026-05-04 22:45 | 32.17439 | 120.63520 | 15739 ft | 406 kts | 278° |
| 2026-05-04 22:46 | 32.17755 | 120.60215 | 15742 ft | 408 kts | 276° |
| 2026-05-04 22:46 | 32.18037 | 120.56905 | 15736 ft | 406 kts | 276° |
| 2026-05-04 22:46 | 32.18317 | 120.53587 | 15735 ft | 408 kts | 276° |
| 2026-05-04 22:46 | 32.18597 | 120.50243 | 15735 ft | 407 kts | 276° |
| 2026-05-04 22:47 | 32.18870 | 120.46959 | 15729 ft | 406 kts | 276° |
| 2026-05-04 22:47 | 32.19147 | 120.43607 | 15736 ft | 407 kts | 276° |
| 2026-05-04 22:47 | 32.19418 | 120.40322 | 15731 ft | 406 kts | 276° |
| 2026-05-04 22:48 | 32.19972 | 120.33551 | 15729 ft | 405 kts | 274° |
| 2026-05-04 22:48 | 32.19910 | 120.30221 | 15728 ft | 407 kts | 264° |
| 2026-05-04 22:48 | 32.19340 | 120.26979 | 15726 ft | 408 kts | 254° |
| 2026-05-04 22:49 | 32.18258 | 120.23844 | 15723 ft | 410 kts | 244° |
| 2026-05-04 22:49 | 32.16931 | 120.20876 | 15722 ft | 410 kts | 243° |
| 2026-05-04 22:49 | 32.15581 | 120.17924 | 15722 ft | 410 kts | 243° |
| 2026-05-04 22:49 | 32.13777 | 120.13989 | 15726 ft | 411 kts | 243° |
| 2026-05-04 22:50 | 32.12859 | 120.11987 | 15724 ft | 410 kts | 243° |
| 2026-05-04 22:50 | 32.11516 | 120.09059 | 15723 ft | 410 kts | 243° |
| 2026-05-04 22:50 | 32.10154 | 120.06094 | 15722 ft | 411 kts | 243° |
| 2026-05-04 22:50 | 32.08781 | 120.03108 | 15716 ft | 411 kts | 243° |
| 2026-05-04 22:51 | 32.07430 | 120.00170 | 15713 ft | 410 kts | 243° |
| 2026-05-04 22:51 | 32.06073 | 119.97222 | 15715 ft | 412 kts | 243° |
| 2026-05-04 22:51 | 32.04254 | 119.93274 | 15711 ft | 410 kts | 243° |
| 2026-05-04 22:51 | 32.03348 | 119.91285 | 15713 ft | 411 kts | 243° |
| 2026-05-04 22:52 | 32.02010 | 119.88322 | 15714 ft | 411 kts | 243° |
| 2026-05-04 22:52 | 32.00667 | 119.85347 | 15713 ft | 410 kts | 243° |
| 2026-05-04 22:52 | 31.99332 | 119.82396 | 15715 ft | 411 kts | 243° |
| 2026-05-04 22:52 | 31.97976 | 119.79400 | 15715 ft | 412 kts | 243° |
| 2026-05-04 22:53 | 31.96645 | 119.76463 | 15714 ft | 411 kts | 243° |
| 2026-05-04 22:53 | 31.95298 | 119.73495 | 15715 ft | 410 kts | 243° |
| 2026-05-04 22:53 | 31.93948 | 119.70521 | 15716 ft | 412 kts | 244° |
| 2026-05-04 22:53 | 31.92656 | 119.67539 | 15715 ft | 410 kts | 245° |
| 2026-05-04 22:54 | 31.91384 | 119.64548 | 15715 ft | 410 kts | 245° |
| 2026-05-04 22:54 | 31.90115 | 119.61569 | 15715 ft | 411 kts | 245° |
| 2026-05-04 22:54 | 31.88819 | 119.58536 | 15714 ft | 411 kts | 245° |
| 2026-05-04 22:54 | 31.87545 | 119.55559 | 15712 ft | 411 kts | 245° |
| 2026-05-04 22:55 | 31.86246 | 119.52530 | 15714 ft | 410 kts | 245° |
| 2026-05-04 22:55 | 31.84971 | 119.49558 | 15714 ft | 410 kts | 245° |
| 2026-05-04 22:55 | 31.83665 | 119.46521 | 15712 ft | 410 kts | 245° |
| 2026-05-04 22:55 | 31.82391 | 119.43559 | 15713 ft | 411 kts | 245° |
| 2026-05-04 22:56 | 31.81094 | 119.40546 | 15715 ft | 411 kts | 245° |
| 2026-05-04 22:56 | 31.79802 | 119.37561 | 15712 ft | 411 kts | 244° |
| 2026-05-04 22:56 | 31.78495 | 119.34583 | 15713 ft | 411 kts | 244° |
| 2026-05-04 22:56 | 31.77181 | 119.31598 | 15717 ft | 410 kts | 244° |
| 2026-05-04 22:57 | 31.75873 | 119.28625 | 15715 ft | 411 kts | 244° |
| 2026-05-04 22:57 | 31.74556 | 119.25635 | 15716 ft | 410 kts | 244° |
| 2026-05-04 22:57 | 31.73253 | 119.22678 | 15720 ft | 411 kts | 244° |
| 2026-05-04 22:57 | 31.71925 | 119.19667 | 15720 ft | 410 kts | 244° |
| 2026-05-04 22:58 | 31.70629 | 119.16728 | 15724 ft | 410 kts | 244° |
| 2026-05-04 22:58 | 31.69313 | 119.13747 | 15723 ft | 411 kts | 244° |
| 2026-05-04 22:58 | 31.68008 | 119.10796 | 15724 ft | 410 kts | 244° |
| 2026-05-04 22:58 | 31.66713 | 119.07783 | 15712 ft | 411 kts | 247° |
| 2026-05-04 22:59 | 31.65615 | 119.03539 | 15730 ft | 409 kts | 261° |
| 2026-05-04 22:59 | 31.65405 | 119.01356 | 15753 ft | 408 kts | 268° |
| 2026-05-04 22:59 | 31.65482 | 118.98042 | 15725 ft | 407 kts | 275° |
| 2026-05-04 22:59 | 31.65724 | 118.94720 | 15715 ft | 407 kts | 275° |
| 2026-05-04 23:00 | 31.65976 | 118.91393 | 15723 ft | 407 kts | 275° |
| 2026-05-04 23:00 | 31.66223 | 118.88120 | 15715 ft | 407 kts | 275° |
| 2026-05-04 23:00 | 31.66473 | 118.84792 | 15712 ft | 406 kts | 275° |
| 2026-05-04 23:00 | 31.66718 | 118.81499 | 15712 ft | 407 kts | 275° |
| 2026-05-04 23:01 | 31.66962 | 118.78222 | 15697 ft | 407 kts | 275° |
| 2026-05-04 23:01 | 31.67206 | 118.74934 | 15720 ft | 406 kts | 275° |
| 2026-05-04 23:01 | 31.67449 | 118.71635 | 15681 ft | 406 kts | 275° |
| 2026-05-04 23:01 | 31.67694 | 118.68300 | 15713 ft | 407 kts | 275° |
| 2026-05-04 23:02 | 31.68015 | 118.63917 | 15702 ft | 407 kts | 275° |
| 2026-05-04 23:02 | 31.68175 | 118.61720 | 15697 ft | 407 kts | 275° |
| 2026-05-04 23:02 | 31.68417 | 118.58392 | 15687 ft | 407 kts | 275° |
| 2026-05-04 23:02 | 31.68655 | 118.55111 | 15693 ft | 407 kts | 275° |
| 2026-05-04 23:03 | 31.68894 | 118.51794 | 15702 ft | 406 kts | 275° |
| 2026-05-04 23:03 | 31.69131 | 118.48508 | 15713 ft | 407 kts | 275° |
| 2026-05-04 23:03 | 31.69368 | 118.45198 | 15700 ft | 408 kts | 275° |
| 2026-05-04 23:03 | 31.69605 | 118.41885 | 15704 ft | 407 kts | 275° |
| 2026-05-04 23:04 | 31.69839 | 118.38591 | 15701 ft | 407 kts | 275° |
| 2026-05-04 23:04 | 31.70071 | 118.35310 | 15703 ft | 407 kts | 275° |
| 2026-05-04 23:04 | 31.70307 | 118.31969 | 15705 ft | 408 kts | 275° |
| 2026-05-04 23:04 | 31.70541 | 118.28645 | 15706 ft | 408 kts | 275° |
| 2026-05-04 23:05 | 31.70774 | 118.25319 | 15701 ft | 407 kts | 275° |
| 2026-05-04 23:05 | 31.71005 | 118.22007 | 15703 ft | 408 kts | 275° |
| 2026-05-04 23:05 | 31.71236 | 118.18688 | 15703 ft | 408 kts | 275° |
| 2026-05-04 23:05 | 31.71462 | 118.15421 | 15705 ft | 407 kts | 275° |
| 2026-05-04 23:06 | 31.71643 | 118.12100 | 15701 ft | 407 kts | 270° |
| 2026-05-04 23:06 | 31.71391 | 118.08764 | 15699 ft | 409 kts | 261° |
| 2026-05-04 23:06 | 31.70780 | 118.05518 | 15703 ft | 409 kts | 258° |
| 2026-05-04 23:06 | 31.70121 | 118.02277 | 15702 ft | 409 kts | 257° |
| 2026-05-04 23:07 | 31.69456 | 117.99033 | 15701 ft | 410 kts | 257° |
| 2026-05-04 23:07 | 31.68793 | 117.95808 | 15702 ft | 410 kts | 257° |
| 2026-05-04 23:07 | 31.68127 | 117.92574 | 15700 ft | 410 kts | 257° |
| 2026-05-04 23:07 | 31.67452 | 117.89307 | 15700 ft | 410 kts | 257° |
| 2026-05-04 23:08 | 31.66782 | 117.86063 | 15701 ft | 410 kts | 257° |
| 2026-05-04 23:08 | 31.66109 | 117.82814 | 15699 ft | 410 kts | 257° |
| 2026-05-04 23:08 | 31.65436 | 117.79569 | 15697 ft | 410 kts | 257° |
| 2026-05-04 23:08 | 31.64762 | 117.76325 | 15697 ft | 410 kts | 257° |
| 2026-05-04 23:09 | 31.64089 | 117.73090 | 15696 ft | 409 kts | 257° |
| 2026-05-04 23:09 | 31.63411 | 117.69832 | 15694 ft | 409 kts | 257° |
| 2026-05-04 23:09 | 31.62754 | 117.66688 | 15690 ft | 390 kts | 257° |
| 2026-05-04 23:09 | 31.62163 | 117.63654 | 15687 ft | 369 kts | 262° |
| 2026-05-04 23:10 | 31.62013 | 117.60718 | 15689 ft | 362 kts | 273° |
| 2026-05-04 23:10 | 31.62366 | 117.57832 | 15687 ft | 359 kts | 284° |
| 2026-05-04 23:10 | 31.63211 | 117.55074 | 15688 ft | 358 kts | 296° |
| 2026-05-04 23:10 | 31.64433 | 117.52532 | 15691 ft | 359 kts | 301° |
| 2026-05-04 23:11 | 31.65752 | 117.50021 | 15688 ft | 359 kts | 302° |
| 2026-05-04 23:11 | 31.67085 | 117.47591 | 15663 ft | 357 kts | 303° |
| 2026-05-04 23:11 | 31.68478 | 117.45159 | 14990 ft | 360 kts | 304° |
| 2026-05-04 23:11 | 31.69900 | 117.42748 | 14467 ft | 356 kts | 304° |
| 2026-05-04 23:12 | 31.71303 | 117.40404 | 14197 ft | 347 kts | 305° |
| 2026-05-04 23:12 | 31.72684 | 117.38110 | 13780 ft | 343 kts | 305° |
| 2026-05-04 23:12 | 31.74044 | 117.35862 | 13300 ft | 341 kts | 305° |
| 2026-05-04 23:12 | 31.75429 | 117.33577 | 12792 ft | 340 kts | 304° |
| 2026-05-04 23:13 | 31.76783 | 117.31348 | 12295 ft | 339 kts | 304° |
| 2026-05-04 23:13 | 31.76866 | 117.31212 | 12264 ft | 339 kts | 304° |
| 2026-05-04 23:21 | 31.77430 | 117.30283 | 12058 ft | 338 kts | 304° |
| 2026-05-04 23:21 | 31.78806 | 117.28034 | 11560 ft | 337 kts | 305° |
| 2026-05-04 23:21 | 31.80171 | 117.25821 | 11061 ft | 336 kts | 305° |
| 2026-05-04 23:21 | 31.81991 | 117.22868 | 10572 ft | 329 kts | 305° |
| 2026-05-04 23:22 | 31.82888 | 117.21413 | 10510 ft | 320 kts | 306° |
| 2026-05-04 23:22 | 31.84440 | 117.19643 | 10416 ft | 307 kts | 323° |
| 2026-05-04 23:22 | 31.86217 | 117.18305 | 10291 ft | 297 kts | 328° |
| 2026-05-04 23:22 | 31.87980 | 117.17097 | 10148 ft | 288 kts | 329° |
| 2026-05-04 23:23 | 31.90257 | 117.15562 | 9887 ft | 281 kts | 329° |
| 2026-05-04 23:23 | 31.91395 | 117.14794 | 9618 ft | 282 kts | 329° |
| 2026-05-04 23:23 | 31.93661 | 117.13263 | 9110 ft | 284 kts | 329° |
| 2026-05-04 23:23 | 31.94802 | 117.12492 | 8877 ft | 284 kts | 329° |
| 2026-05-04 23:24 | 31.96536 | 117.11320 | 8507 ft | 285 kts | 329° |
| 2026-05-04 23:24 | 31.98247 | 117.10162 | 8152 ft | 285 kts | 329° |
| 2026-05-04 23:24 | 31.99967 | 117.08997 | 7802 ft | 284 kts | 329° |
| 2026-05-04 23:24 | 32.01672 | 117.07843 | 7479 ft | 284 kts | 329° |
| 2026-05-04 23:25 | 32.03380 | 117.06686 | 7135 ft | 283 kts | 329° |
| 2026-05-04 23:25 | 32.05090 | 117.05527 | 6794 ft | 283 kts | 329° |
| 2026-05-04 23:25 | 32.06792 | 117.04373 | 6456 ft | 282 kts | 329° |
| 2026-05-04 23:25 | 32.08506 | 117.03210 | 6117 ft | 282 kts | 329° |
| 2026-05-04 23:26 | 32.10197 | 117.02063 | 5784 ft | 281 kts | 329° |
| 2026-05-04 23:26 | 32.11911 | 117.00899 | 5433 ft | 281 kts | 329° |
| 2026-05-04 23:26 | 32.14144 | 116.99382 | 5005 ft | 280 kts | 329° |
| 2026-05-04 23:26 | 32.15282 | 116.98609 | 4777 ft | 279 kts | 329° |
| 2026-05-04 23:27 | 32.16945 | 116.97476 | 4535 ft | 274 kts | 328° |
| 2026-05-04 23:27 | 32.18329 | 116.96021 | 4457 ft | 259 kts | 302° |
| 2026-05-04 23:27 | 32.18991 | 116.94132 | 4392 ft | 242 kts | 281° |
| 2026-05-04 23:27 | 32.18900 | 116.91605 | 4057 ft | 231 kts | 250° |
| 2026-05-04 23:28 | 32.18531 | 116.90437 | 3835 ft | 230 kts | 244° |
| 2026-05-04 23:28 | 32.17815 | 116.88744 | 3531 ft | 228 kts | 238° |
| 2026-05-04 23:28 | 32.16763 | 116.87449 | 3263 ft | 217 kts | 207° |
| 2026-05-04 23:28 | 32.15355 | 116.87057 | 3185 ft | 201 kts | 176° |
| 2026-05-04 23:29 | 32.14045 | 116.87444 | 3182 ft | 187 kts | 160° |
| 2026-05-04 23:29 | 32.12530 | 116.88425 | 2927 ft | 185 kts | 150° |
| 2026-05-04 23:29 | 32.11801 | 116.88940 | 2778 ft | 181 kts | 151° |
| 2026-05-04 23:29 | 32.10717 | 116.89668 | 2553 ft | 176 kts | 152° |
| 2026-05-04 23:30 | 32.09671 | 116.90369 | 2329 ft | 169 kts | 152° |
| 2026-05-04 23:30 | 32.08685 | 116.91032 | 2119 ft | 157 kts | 152° |
| 2026-05-04 23:30 | 32.07750 | 116.91661 | 1920 ft | 152 kts | 152° |
| 2026-05-04 23:30 | 32.06842 | 116.92274 | 1724 ft | 149 kts | 152° |
| 2026-05-04 23:31 | 32.05938 | 116.92883 | 1530 ft | 148 kts | 152° |
| 2026-05-04 23:31 | 32.04767 | 116.93673 | 1274 ft | 151 kts | 151° |
| 2026-05-04 23:31 | 32.04154 | 116.94087 | 1137 ft | 150 kts | 151° |
| 2026-05-04 23:31 | 32.03242 | 116.94701 | 911 ft | 153 kts | 151° |
| 2026-05-04 23:32 | 32.02313 | 116.95320 | 704 ft | 150 kts | 151° |
| 2026-05-04 23:32 | 32.01408 | 116.95925 | 485 ft | 148 kts | 150° |
| 2026-05-04 23:32 | 32.00519 | 116.96522 | 324 ft | 144 kts | 150° |
| 2026-05-04 23:32 | 31.99669 | 116.97100 | 229 ft | 135 kts | 150° |
| 2026-05-04 23:33 | 31.98701 | 116.97756 | 223 ft | 100 kts | 149° |
| 2026-05-04 23:33 | 31.98353 | 116.97988 | 223 ft | 70 kts | 147° |
| 2026-05-04 23:33 | 31.98054 | 116.98192 | 223 ft | 36 kts | 150° |